sensor_id;sensor_type;location;lat;lon;timestamp;P1;durP1;ratioP1;P2;durP2;ratioP2
15216;SDS011;7711;46.634;14.318;2023-04-25T00:00:57;12.67;;;10.67;;
15216;SDS011;7711;46.634;14.318;2023-04-25T00:03:24;15.83;;;11.70;;
15216;SDS011;7711;46.634;14.318;2023-04-25T00:05:53;13.67;;;11.27;;
15216;SDS011;7711;46.634;14.318;2023-04-25T00:08:21;15.20;;;12.33;;
15216;SDS011;7711;46.634;14.318;2023-04-25T00:10:48;15.27;;;12.47;;
15216;SDS011;7711;46.634;14.318;2023-04-25T00:13:15;13.47;;;11.20;;
15216;SDS011;7711;46.634;14.318;2023-04-25T00:15:44;14.47;;;11.77;;
15216;SDS011;7711;46.634;14.318;2023-04-25T00:18:11;14.17;;;11.70;;
15216;SDS011;7711;46.634;14.318;2023-04-25T00:20:38;13.50;;;11.87;;
15216;SDS011;7711;46.634;14.318;2023-04-25T00:23:06;15.10;;;11.27;;
15216;SDS011;7711;46.634;14.318;2023-04-25T00:25:33;13.27;;;11.60;;
15216;SDS011;7711;46.634;14.318;2023-04-25T00:28:00;12.70;;;10.90;;
15216;SDS011;7711;46.634;14.318;2023-04-25T00:30:27;11.93;;;9.97;;
15216;SDS011;7711;46.634;14.318;2023-04-25T00:32:54;13.07;;;10.83;;
15216;SDS011;7711;46.634;14.318;2023-04-25T00:35:21;11.60;;;10.03;;
15216;SDS011;7711;46.634;14.318;2023-04-25T00:37:48;13.10;;;10.47;;
15216;SDS011;7711;46.634;14.318;2023-04-25T00:40:16;12.37;;;10.20;;
15216;SDS011;7711;46.634;14.318;2023-04-25T00:42:43;10.40;;;9.30;;
15216;SDS011;7711;46.634;14.318;2023-04-25T00:45:12;11.27;;;9.37;;
15216;SDS011;7711;46.634;14.318;2023-04-25T00:47:40;10.10;;;8.13;;
15216;SDS011;7711;46.634;14.318;2023-04-25T00:50:08;9.07;;;8.00;;
15216;SDS011;7711;46.634;14.318;2023-04-25T00:52:35;8.73;;;7.83;;
15216;SDS011;7711;46.634;14.318;2023-04-25T00:55:04;10.27;;;8.47;;
15216;SDS011;7711;46.634;14.318;2023-04-25T00:57:32;9.93;;;8.43;;
15216;SDS011;7711;46.634;14.318;2023-04-25T01:00:00;9.83;;;8.30;;
15216;SDS011;7711;46.634;14.318;2023-04-25T01:02:27;10.77;;;8.90;;
15216;SDS011;7711;46.634;14.318;2023-04-25T01:04:56;10.40;;;8.83;;
15216;SDS011;7711;46.634;14.318;2023-04-25T01:07:23;10.17;;;9.00;;
15216;SDS011;7711;46.634;14.318;2023-04-25T01:09:51;10.37;;;9.27;;
15216;SDS011;7711;46.634;14.318;2023-04-25T01:12:18;10.73;;;9.43;;
15216;SDS011;7711;46.634;14.318;2023-04-25T01:14:47;10.37;;;8.97;;
15216;SDS011;7711;46.634;14.318;2023-04-25T01:17:14;11.30;;;9.43;;
15216;SDS011;7711;46.634;14.318;2023-04-25T01:19:42;10.30;;;8.30;;
15216;SDS011;7711;46.634;14.318;2023-04-25T01:22:12;11.37;;;9.60;;
15216;SDS011;7711;46.634;14.318;2023-04-25T01:24:39;10.83;;;8.97;;
15216;SDS011;7711;46.634;14.318;2023-04-25T01:27:06;10.37;;;9.20;;
15216;SDS011;7711;46.634;14.318;2023-04-25T01:29:36;10.93;;;9.43;;
15216;SDS011;7711;46.634;14.318;2023-04-25T01:32:03;9.33;;;8.40;;
15216;SDS011;7711;46.634;14.318;2023-04-25T01:34:31;11.63;;;9.70;;
15216;SDS011;7711;46.634;14.318;2023-04-25T01:36:59;10.30;;;8.77;;
15216;SDS011;7711;46.634;14.318;2023-04-25T01:39:28;9.40;;;8.40;;
15216;SDS011;7711;46.634;14.318;2023-04-25T01:41:55;11.13;;;8.47;;
15216;SDS011;7711;46.634;14.318;2023-04-25T01:44:22;12.33;;;9.80;;
15216;SDS011;7711;46.634;14.318;2023-04-25T01:46:50;11.67;;;9.70;;
15216;SDS011;7711;46.634;14.318;2023-04-25T01:49:17;12.10;;;9.50;;
15216;SDS011;7711;46.634;14.318;2023-04-25T01:51:44;12.67;;;10.10;;
15216;SDS011;7711;46.634;14.318;2023-04-25T01:54:11;11.23;;;9.20;;
15216;SDS011;7711;46.634;14.318;2023-04-25T01:56:40;10.93;;;9.40;;
15216;SDS011;7711;46.634;14.318;2023-04-25T01:59:08;11.57;;;8.77;;
15216;SDS011;7711;46.634;14.318;2023-04-25T02:01:35;11.07;;;8.87;;
15216;SDS011;7711;46.634;14.318;2023-04-25T02:04:02;11.03;;;8.77;;
15216;SDS011;7711;46.634;14.318;2023-04-25T02:06:29;11.17;;;9.70;;
15216;SDS011;7711;46.634;14.318;2023-04-25T02:08:56;9.57;;;8.50;;
15216;SDS011;7711;46.634;14.318;2023-04-25T02:11:22;12.50;;;9.53;;
15216;SDS011;7711;46.634;14.318;2023-04-25T02:13:51;11.93;;;9.13;;
15216;SDS011;7711;46.634;14.318;2023-04-25T02:16:18;8.90;;;8.00;;
15216;SDS011;7711;46.634;14.318;2023-04-25T02:18:45;10.97;;;8.17;;
15216;SDS011;7711;46.634;14.318;2023-04-25T02:21:12;11.27;;;8.63;;
15216;SDS011;7711;46.634;14.318;2023-04-25T02:23:40;8.23;;;7.00;;
15216;SDS011;7711;46.634;14.318;2023-04-25T02:26:08;7.20;;;6.30;;
15216;SDS011;7711;46.634;14.318;2023-04-25T02:28:36;7.80;;;6.87;;
15216;SDS011;7711;46.634;14.318;2023-04-25T02:31:04;7.23;;;6.23;;
15216;SDS011;7711;46.634;14.318;2023-04-25T02:33:32;7.43;;;6.67;;
15216;SDS011;7711;46.634;14.318;2023-04-25T02:35:59;8.30;;;6.63;;
15216;SDS011;7711;46.634;14.318;2023-04-25T02:38:26;10.17;;;6.93;;
15216;SDS011;7711;46.634;14.318;2023-04-25T02:40:53;8.23;;;6.93;;
15216;SDS011;7711;46.634;14.318;2023-04-25T02:43:20;8.67;;;7.33;;
15216;SDS011;7711;46.634;14.318;2023-04-25T02:45:47;8.20;;;7.00;;
15216;SDS011;7711;46.634;14.318;2023-04-25T02:48:16;8.90;;;7.30;;
15216;SDS011;7711;46.634;14.318;2023-04-25T02:50:43;7.83;;;6.90;;
15216;SDS011;7711;46.634;14.318;2023-04-25T02:53:10;9.17;;;6.73;;
15216;SDS011;7711;46.634;14.318;2023-04-25T02:55:37;7.40;;;6.60;;
15216;SDS011;7711;46.634;14.318;2023-04-25T02:58:04;9.17;;;7.70;;
15216;SDS011;7711;46.634;14.318;2023-04-25T03:00:31;8.10;;;6.93;;
15216;SDS011;7711;46.634;14.318;2023-04-25T03:02:57;9.90;;;8.53;;
15216;SDS011;7711;46.634;14.318;2023-04-25T03:05:26;12.77;;;9.37;;
15216;SDS011;7711;46.634;14.318;2023-04-25T03:07:53;12.60;;;9.70;;
15216;SDS011;7711;46.634;14.318;2023-04-25T03:10:20;14.80;;;10.43;;
15216;SDS011;7711;46.634;14.318;2023-04-25T03:12:47;12.50;;;9.97;;
15216;SDS011;7711;46.634;14.318;2023-04-25T03:15:14;15.43;;;10.00;;
15216;SDS011;7711;46.634;14.318;2023-04-25T03:17:41;15.83;;;10.80;;
15216;SDS011;7711;46.634;14.318;2023-04-25T03:20:09;12.20;;;10.63;;
15216;SDS011;7711;46.634;14.318;2023-04-25T03:22:38;14.17;;;11.27;;
15216;SDS011;7711;46.634;14.318;2023-04-25T03:25:05;14.87;;;10.60;;
15216;SDS011;7711;46.634;14.318;2023-04-25T03:27:33;14.40;;;10.37;;
15216;SDS011;7711;46.634;14.318;2023-04-25T03:30:00;14.83;;;11.27;;
15216;SDS011;7711;46.634;14.318;2023-04-25T03:32:27;14.60;;;11.20;;
15216;SDS011;7711;46.634;14.318;2023-04-25T03:34:54;12.17;;;9.97;;
15216;SDS011;7711;46.634;14.318;2023-04-25T03:37:22;11.53;;;9.67;;
15216;SDS011;7711;46.634;14.318;2023-04-25T03:39:50;16.00;;;9.93;;
15216;SDS011;7711;46.634;14.318;2023-04-25T03:42:17;12.23;;;9.17;;
15216;SDS011;7711;46.634;14.318;2023-04-25T03:44:44;14.57;;;9.63;;
15216;SDS011;7711;46.634;14.318;2023-04-25T03:47:11;11.93;;;9.90;;
15216;SDS011;7711;46.634;14.318;2023-04-25T03:49:38;12.60;;;9.23;;
15216;SDS011;7711;46.634;14.318;2023-04-25T03:52:05;14.23;;;9.53;;
15216;SDS011;7711;46.634;14.318;2023-04-25T03:54:32;10.97;;;8.67;;
15216;SDS011;7711;46.634;14.318;2023-04-25T03:57:01;11.43;;;9.40;;
15216;SDS011;7711;46.634;14.318;2023-04-25T03:59:28;11.87;;;9.17;;
15216;SDS011;7711;46.634;14.318;2023-04-25T04:01:55;13.33;;;9.53;;
15216;SDS011;7711;46.634;14.318;2023-04-25T04:04:22;11.67;;;8.87;;
15216;SDS011;7711;46.634;14.318;2023-04-25T04:06:49;10.43;;;8.93;;
15216;SDS011;7711;46.634;14.318;2023-04-25T04:09:17;9.90;;;8.77;;
15216;SDS011;7711;46.634;14.318;2023-04-25T04:11:45;10.73;;;8.90;;
15216;SDS011;7711;46.634;14.318;2023-04-25T04:14:13;11.47;;;7.60;;
15216;SDS011;7711;46.634;14.318;2023-04-25T04:16:40;8.50;;;7.30;;
15216;SDS011;7711;46.634;14.318;2023-04-25T04:19:08;9.87;;;7.27;;
15216;SDS011;7711;46.634;14.318;2023-04-25T04:21:35;10.17;;;6.57;;
15216;SDS011;7711;46.634;14.318;2023-04-25T04:24:02;7.10;;;6.13;;
15216;SDS011;7711;46.634;14.318;2023-04-25T04:26:31;6.73;;;6.03;;
15216;SDS011;7711;46.634;14.318;2023-04-25T04:28:59;7.93;;;6.73;;
15216;SDS011;7711;46.634;14.318;2023-04-25T04:31:27;8.30;;;6.60;;
15216;SDS011;7711;46.634;14.318;2023-04-25T04:33:55;7.60;;;6.23;;
15216;SDS011;7711;46.634;14.318;2023-04-25T04:36:22;7.23;;;6.40;;
15216;SDS011;7711;46.634;14.318;2023-04-25T04:38:51;6.83;;;6.17;;
15216;SDS011;7711;46.634;14.318;2023-04-25T04:41:19;7.60;;;6.37;;
15216;SDS011;7711;46.634;14.318;2023-04-25T04:43:46;9.17;;;6.70;;
15216;SDS011;7711;46.634;14.318;2023-04-25T04:46:12;7.00;;;6.23;;
15216;SDS011;7711;46.634;14.318;2023-04-25T04:48:41;7.07;;;6.37;;
15216;SDS011;7711;46.634;14.318;2023-04-25T04:51:09;8.40;;;6.50;;
15216;SDS011;7711;46.634;14.318;2023-04-25T04:53:36;7.27;;;6.30;;
15216;SDS011;7711;46.634;14.318;2023-04-25T04:56:03;6.77;;;6.07;;
15216;SDS011;7711;46.634;14.318;2023-04-25T04:58:31;8.20;;;7.03;;
15216;SDS011;7711;46.634;14.318;2023-04-25T05:00:58;9.07;;;7.03;;
15216;SDS011;7711;46.634;14.318;2023-04-25T05:03:25;7.00;;;6.30;;
15216;SDS011;7711;46.634;14.318;2023-04-25T05:05:53;7.47;;;6.57;;
15216;SDS011;7711;46.634;14.318;2023-04-25T05:08:20;8.50;;;7.20;;
15216;SDS011;7711;46.634;14.318;2023-04-25T05:10:47;7.87;;;6.60;;
15216;SDS011;7711;46.634;14.318;2023-04-25T05:13:14;9.47;;;6.90;;
15216;SDS011;7711;46.634;14.318;2023-04-25T05:15:41;7.23;;;6.43;;
15216;SDS011;7711;46.634;14.318;2023-04-25T05:18:08;6.77;;;6.07;;
15216;SDS011;7711;46.634;14.318;2023-04-25T05:20:35;6.77;;;6.10;;
15216;SDS011;7711;46.634;14.318;2023-04-25T05:23:03;7.10;;;6.10;;
15216;SDS011;7711;46.634;14.318;2023-04-25T05:25:31;10.00;;;6.17;;
15216;SDS011;7711;46.634;14.318;2023-04-25T05:27:58;7.33;;;6.10;;
15216;SDS011;7711;46.634;14.318;2023-04-25T05:30:25;7.40;;;6.00;;
15216;SDS011;7711;46.634;14.318;2023-04-25T05:32:52;7.97;;;5.40;;
15216;SDS011;7711;46.634;14.318;2023-04-25T05:35:19;6.67;;;5.73;;
15216;SDS011;7711;46.634;14.318;2023-04-25T05:37:46;9.50;;;5.67;;
15216;SDS011;7711;46.634;14.318;2023-04-25T05:40:14;7.83;;;5.37;;
15216;SDS011;7711;46.634;14.318;2023-04-25T05:42:41;7.80;;;5.10;;
15216;SDS011;7711;46.634;14.318;2023-04-25T05:45:08;5.90;;;5.30;;
15216;SDS011;7711;46.634;14.318;2023-04-25T05:47:35;5.40;;;4.90;;
15216;SDS011;7711;46.634;14.318;2023-04-25T05:50:03;6.43;;;5.37;;
15216;SDS011;7711;46.634;14.318;2023-04-25T05:52:30;5.57;;;5.07;;
15216;SDS011;7711;46.634;14.318;2023-04-25T05:54:57;5.43;;;4.93;;
15216;SDS011;7711;46.634;14.318;2023-04-25T05:57:26;6.70;;;5.13;;
15216;SDS011;7711;46.634;14.318;2023-04-25T05:59:53;5.63;;;5.10;;
15216;SDS011;7711;46.634;14.318;2023-04-25T06:02:20;5.77;;;5.17;;
15216;SDS011;7711;46.634;14.318;2023-04-25T06:04:48;6.80;;;5.00;;
15216;SDS011;7711;46.634;14.318;2023-04-25T06:07:16;5.73;;;5.03;;
15216;SDS011;7711;46.634;14.318;2023-04-25T06:09:43;5.90;;;5.30;;
15216;SDS011;7711;46.634;14.318;2023-04-25T06:12:10;5.43;;;4.60;;
15216;SDS011;7711;46.634;14.318;2023-04-25T06:14:39;6.47;;;4.90;;
15216;SDS011;7711;46.634;14.318;2023-04-25T06:17:07;5.03;;;4.53;;
15216;SDS011;7711;46.634;14.318;2023-04-25T06:19:34;5.50;;;5.00;;
15216;SDS011;7711;46.634;14.318;2023-04-25T06:22:01;6.47;;;4.87;;
15216;SDS011;7711;46.634;14.318;2023-04-25T06:24:28;5.67;;;5.00;;
15216;SDS011;7711;46.634;14.318;2023-04-25T06:26:55;5.10;;;4.63;;
15216;SDS011;7711;46.634;14.318;2023-04-25T06:29:22;6.63;;;5.80;;
15216;SDS011;7711;46.634;14.318;2023-04-25T06:31:51;5.70;;;4.60;;
15216;SDS011;7711;46.634;14.318;2023-04-25T06:34:18;5.63;;;4.73;;
15216;SDS011;7711;46.634;14.318;2023-04-25T06:36:45;6.53;;;5.77;;
15216;SDS011;7711;46.634;14.318;2023-04-25T06:39:12;6.60;;;5.73;;
15216;SDS011;7711;46.634;14.318;2023-04-25T06:41:39;5.63;;;5.07;;
15216;SDS011;7711;46.634;14.318;2023-04-25T06:44:06;8.87;;;5.47;;
15216;SDS011;7711;46.634;14.318;2023-04-25T06:46:33;6.07;;;5.23;;
15216;SDS011;7711;46.634;14.318;2023-04-25T06:49:02;8.47;;;5.57;;
15216;SDS011;7711;46.634;14.318;2023-04-25T06:51:29;6.47;;;5.00;;
15216;SDS011;7711;46.634;14.318;2023-04-25T06:53:56;9.60;;;5.30;;
15216;SDS011;7711;46.634;14.318;2023-04-25T06:56:24;6.37;;;5.20;;
15216;SDS011;7711;46.634;14.318;2023-04-25T06:58:51;6.03;;;5.07;;
15216;SDS011;7711;46.634;14.318;2023-04-25T07:01:18;5.30;;;4.80;;
15216;SDS011;7711;46.634;14.318;2023-04-25T07:03:44;5.27;;;4.43;;
15216;SDS011;7711;46.634;14.318;2023-04-25T07:06:13;6.07;;;4.87;;
15216;SDS011;7711;46.634;14.318;2023-04-25T07:08:40;4.67;;;4.20;;
15216;SDS011;7711;46.634;14.318;2023-04-25T07:11:07;5.33;;;4.10;;
15216;SDS011;7711;46.634;14.318;2023-04-25T07:13:34;4.77;;;4.27;;
15216;SDS011;7711;46.634;14.318;2023-04-25T07:16:01;6.13;;;4.47;;
15216;SDS011;7711;46.634;14.318;2023-04-25T07:18:28;3.90;;;3.60;;
15216;SDS011;7711;46.634;14.318;2023-04-25T07:20:55;5.07;;;4.13;;
15216;SDS011;7711;46.634;14.318;2023-04-25T07:23:24;5.20;;;3.80;;
15216;SDS011;7711;46.634;14.318;2023-04-25T07:25:51;4.30;;;3.90;;
15216;SDS011;7711;46.634;14.318;2023-04-25T07:28:18;5.07;;;4.40;;
15216;SDS011;7711;46.634;14.318;2023-04-25T07:30:45;5.30;;;4.10;;
15216;SDS011;7711;46.634;14.318;2023-04-25T07:33:12;3.73;;;3.37;;
15216;SDS011;7711;46.634;14.318;2023-04-25T07:35:39;3.57;;;3.27;;
15216;SDS011;7711;46.634;14.318;2023-04-25T07:38:06;4.13;;;3.67;;
15216;SDS011;7711;46.634;14.318;2023-04-25T07:40:36;5.60;;;3.73;;
15216;SDS011;7711;46.634;14.318;2023-04-25T07:43:03;4.23;;;3.83;;
15216;SDS011;7711;46.634;14.318;2023-04-25T07:45:30;4.20;;;3.80;;
15216;SDS011;7711;46.634;14.318;2023-04-25T07:47:57;3.93;;;3.60;;
15216;SDS011;7711;46.634;14.318;2023-04-25T07:50:24;4.67;;;3.70;;
15216;SDS011;7711;46.634;14.318;2023-04-25T07:52:51;4.10;;;3.73;;
15216;SDS011;7711;46.634;14.318;2023-04-25T07:55:18;4.53;;;3.93;;
15216;SDS011;7711;46.634;14.318;2023-04-25T07:57:46;4.17;;;3.57;;
15216;SDS011;7711;46.634;14.318;2023-04-25T08:00:14;4.13;;;3.70;;
15216;SDS011;7711;46.634;14.318;2023-04-25T08:02:41;6.40;;;3.93;;
15216;SDS011;7711;46.634;14.318;2023-04-25T08:05:08;4.70;;;3.80;;
15216;SDS011;7711;46.634;14.318;2023-04-25T08:07:39;7.10;;;4.10;;
15216;SDS011;7711;46.634;14.318;2023-04-25T08:10:07;4.70;;;3.63;;
15216;SDS011;7711;46.634;14.318;2023-04-25T08:12:34;3.63;;;3.33;;
15216;SDS011;7711;46.634;14.318;2023-04-25T08:15:03;4.17;;;3.77;;
15216;SDS011;7711;46.634;14.318;2023-04-25T08:17:31;5.73;;;3.50;;
15216;SDS011;7711;46.634;14.318;2023-04-25T08:19:58;3.93;;;3.63;;
15216;SDS011;7711;46.634;14.318;2023-04-25T08:22:25;4.77;;;3.60;;
15216;SDS011;7711;46.634;14.318;2023-04-25T08:24:55;3.97;;;3.57;;
15216;SDS011;7711;46.634;14.318;2023-04-25T08:27:22;5.23;;;3.70;;
15216;SDS011;7711;46.634;14.318;2023-04-25T08:29:49;3.70;;;3.40;;
15216;SDS011;7711;46.634;14.318;2023-04-25T08:32:18;6.57;;;4.00;;
15216;SDS011;7711;46.634;14.318;2023-04-25T08:34:46;4.93;;;4.23;;
15216;SDS011;7711;46.634;14.318;2023-04-25T08:37:13;4.23;;;3.50;;
15216;SDS011;7711;46.634;14.318;2023-04-25T08:39:40;4.30;;;3.90;;
15216;SDS011;7711;46.634;14.318;2023-04-25T08:42:07;4.77;;;3.93;;
15216;SDS011;7711;46.634;14.318;2023-04-25T08:44:34;4.10;;;3.70;;
15216;SDS011;7711;46.634;14.318;2023-04-25T08:47:01;6.77;;;3.70;;
15216;SDS011;7711;46.634;14.318;2023-04-25T08:49:31;3.63;;;3.27;;
15216;SDS011;7711;46.634;14.318;2023-04-25T08:52:00;3.90;;;3.40;;
15216;SDS011;7711;46.634;14.318;2023-04-25T08:54:29;4.13;;;3.37;;
15216;SDS011;7711;46.634;14.318;2023-04-25T08:56:59;3.90;;;3.60;;
15216;SDS011;7711;46.634;14.318;2023-04-25T08:59:29;3.80;;;3.40;;
15216;SDS011;7711;46.634;14.318;2023-04-25T09:01:56;4.10;;;3.70;;
15216;SDS011;7711;46.634;14.318;2023-04-25T09:04:23;4.27;;;3.30;;
15216;SDS011;7711;46.634;14.318;2023-04-25T09:06:52;4.10;;;3.70;;
15216;SDS011;7711;46.634;14.318;2023-04-25T09:09:19;7.17;;;3.60;;
15216;SDS011;7711;46.634;14.318;2023-04-25T09:11:46;6.30;;;3.55;;
15216;SDS011;7711;46.634;14.318;2023-04-25T09:14:14;7.03;;;3.70;;
15216;SDS011;7711;46.634;14.318;2023-04-25T09:16:57;4.17;;;3.30;;
15216;SDS011;7711;46.634;14.318;2023-04-25T09:19:26;4.17;;;3.20;;
15216;SDS011;7711;46.634;14.318;2023-04-25T09:21:57;3.30;;;3.00;;
15216;SDS011;7711;46.634;14.318;2023-04-25T09:24:33;3.90;;;3.50;;
15216;SDS011;7711;46.634;14.318;2023-04-25T09:27:02;3.60;;;3.17;;
15216;SDS011;7711;46.634;14.318;2023-04-25T09:29:31;3.30;;;3.00;;
15216;SDS011;7711;46.634;14.318;2023-04-25T09:32:18;3.10;;;2.80;;
15216;SDS011;7711;46.634;14.318;2023-04-25T09:34:47;3.60;;;3.30;;
15216;SDS011;7711;46.634;14.318;2023-04-25T09:37:19;5.63;;;3.20;;
15216;SDS011;7711;46.634;14.318;2023-04-25T09:39:47;3.67;;;3.37;;
15216;SDS011;7711;46.634;14.318;2023-04-25T09:42:16;6.33;;;3.13;;
15216;SDS011;7711;46.634;14.318;2023-04-25T09:44:43;3.93;;;3.50;;
15216;SDS011;7711;46.634;14.318;2023-04-25T09:47:12;4.87;;;3.37;;
15216;SDS011;7711;46.634;14.318;2023-04-25T09:49:40;3.37;;;3.07;;
15216;SDS011;7711;46.634;14.318;2023-04-25T09:52:08;4.30;;;3.47;;
15216;SDS011;7711;46.634;14.318;2023-04-25T09:54:37;4.20;;;3.13;;
15216;SDS011;7711;46.634;14.318;2023-04-25T09:57:06;4.30;;;3.37;;
15216;SDS011;7711;46.634;14.318;2023-04-25T09:59:38;5.37;;;3.10;;
15216;SDS011;7711;46.634;14.318;2023-04-25T10:02:07;5.03;;;3.00;;
15216;SDS011;7711;46.634;14.318;2023-04-25T10:04:35;5.47;;;2.97;;
15216;SDS011;7711;46.634;14.318;2023-04-25T10:07:04;3.03;;;2.72;;
15216;SDS011;7711;46.634;14.318;2023-04-25T10:09:32;4.57;;;3.30;;
15216;SDS011;7711;46.634;14.318;2023-04-25T10:12:04;3.80;;;2.80;;
15216;SDS011;7711;46.634;14.318;2023-04-25T10:14:31;4.53;;;2.67;;
15216;SDS011;7711;46.634;14.318;2023-04-25T10:16:58;3.08;;;2.78;;
15216;SDS011;7711;46.634;14.318;2023-04-25T10:19:26;3.60;;;2.80;;
15216;SDS011;7711;46.634;14.318;2023-04-25T10:21:56;3.30;;;2.90;;
15216;SDS011;7711;46.634;14.318;2023-04-25T10:24:29;3.50;;;3.20;;
15216;SDS011;7711;46.634;14.318;2023-04-25T10:26:57;5.82;;;3.05;;
15216;SDS011;7711;46.634;14.318;2023-04-25T10:29:26;5.88;;;3.33;;
15216;SDS011;7711;46.634;14.318;2023-04-25T10:31:53;3.40;;;3.10;;
15216;SDS011;7711;46.634;14.318;2023-04-25T10:34:23;3.65;;;3.30;;
15216;SDS011;7711;46.634;14.318;2023-04-25T10:36:52;4.30;;;3.30;;
15216;SDS011;7711;46.634;14.318;2023-04-25T10:39:23;4.32;;;3.10;;
15216;SDS011;7711;46.634;14.318;2023-04-25T10:41:55;3.33;;;3.00;;
15216;SDS011;7711;46.634;14.318;2023-04-25T10:44:27;5.47;;;3.20;;
15216;SDS011;7711;46.634;14.318;2023-04-25T10:46:55;3.53;;;3.22;;
15216;SDS011;7711;46.634;14.318;2023-04-25T10:49:29;3.55;;;3.25;;
15216;SDS011;7711;46.634;14.318;2023-04-25T10:52:10;4.55;;;3.10;;
15216;SDS011;7711;46.634;14.318;2023-04-25T10:54:42;5.18;;;3.70;;
15216;SDS011;7711;46.634;14.318;2023-04-25T10:57:28;3.47;;;3.17;;
15216;SDS011;7711;46.634;14.318;2023-04-25T11:00:01;4.03;;;3.63;;
15216;SDS011;7711;46.634;14.318;2023-04-25T11:02:36;3.33;;;3.03;;
15216;SDS011;7711;46.634;14.318;2023-04-25T11:05:05;4.22;;;3.78;;
15216;SDS011;7711;46.634;14.318;2023-04-25T11:07:34;4.22;;;3.13;;
15216;SDS011;7711;46.634;14.318;2023-04-25T11:10:05;5.47;;;3.20;;
15216;SDS011;7711;46.634;14.318;2023-04-25T11:12:33;7.30;;;3.75;;
15216;SDS011;7711;46.634;14.318;2023-04-25T11:15:02;3.60;;;3.30;;
15216;SDS011;7711;46.634;14.318;2023-04-25T11:17:30;4.80;;;3.35;;
15216;SDS011;7711;46.634;14.318;2023-04-25T11:19:58;6.30;;;3.50;;
15216;SDS011;7711;46.634;14.318;2023-04-25T11:22:26;5.78;;;3.53;;
15216;SDS011;7711;46.634;14.318;2023-04-25T11:24:53;3.28;;;2.95;;
15216;SDS011;7711;46.634;14.318;2023-04-25T11:27:20;3.72;;;3.22;;
15216;SDS011;7711;46.634;14.318;2023-04-25T11:29:49;2.75;;;2.55;;
15216;SDS011;7711;46.634;14.318;2023-04-25T11:32:18;3.20;;;2.90;;
15216;SDS011;7711;46.634;14.318;2023-04-25T11:34:46;5.60;;;3.13;;
15216;SDS011;7711;46.634;14.318;2023-04-25T11:37:13;4.95;;;3.83;;
15216;SDS011;7711;46.634;14.318;2023-04-25T11:39:43;3.78;;;2.97;;
15216;SDS011;7711;46.634;14.318;2023-04-25T11:42:12;2.88;;;2.50;;
15216;SDS011;7711;46.634;14.318;2023-04-25T11:44:39;2.45;;;2.20;;
15216;SDS011;7711;46.634;14.318;2023-04-25T11:47:06;3.20;;;2.17;;
15216;SDS011;7711;46.634;14.318;2023-04-25T11:49:35;2.58;;;2.15;;
15216;SDS011;7711;46.634;14.318;2023-04-25T11:52:02;2.95;;;2.40;;
15216;SDS011;7711;46.634;14.318;2023-04-25T11:54:34;1.98;;;1.88;;
15216;SDS011;7711;46.634;14.318;2023-04-25T11:57:02;3.40;;;2.30;;
15216;SDS011;7711;46.634;14.318;2023-04-25T11:59:29;2.55;;;2.20;;
15216;SDS011;7711;46.634;14.318;2023-04-25T12:01:56;2.38;;;2.17;;
15216;SDS011;7711;46.634;14.318;2023-04-25T12:04:24;3.20;;;2.65;;
15216;SDS011;7711;46.634;14.318;2023-04-25T12:06:53;2.65;;;2.45;;
15216;SDS011;7711;46.634;14.318;2023-04-25T12:09:21;3.08;;;2.55;;
15216;SDS011;7711;46.634;14.318;2023-04-25T12:11:55;1.92;;;1.80;;
15216;SDS011;7711;46.634;14.318;2023-04-25T12:14:24;3.55;;;2.03;;
15216;SDS011;7711;46.634;14.318;2023-04-25T12:16:52;2.35;;;2.10;;
15216;SDS011;7711;46.634;14.318;2023-04-25T12:19:22;4.22;;;2.20;;
15216;SDS011;7711;46.634;14.318;2023-04-25T12:21:49;4.72;;;2.60;;
15216;SDS011;7711;46.634;14.318;2023-04-25T12:24:22;5.15;;;2.42;;
15216;SDS011;7711;46.634;14.318;2023-04-25T12:26:51;2.60;;;2.38;;
15216;SDS011;7711;46.634;14.318;2023-04-25T12:29:20;5.57;;;2.35;;
15216;SDS011;7711;46.634;14.318;2023-04-25T12:31:48;4.10;;;2.20;;
15216;SDS011;7711;46.634;14.318;2023-04-25T12:34:16;3.10;;;2.10;;
15216;SDS011;7711;46.634;14.318;2023-04-25T12:36:43;3.35;;;2.20;;
15216;SDS011;7711;46.634;14.318;2023-04-25T12:39:14;2.83;;;2.53;;
15216;SDS011;7711;46.634;14.318;2023-04-25T12:41:43;3.10;;;2.70;;
15216;SDS011;7711;46.634;14.318;2023-04-25T12:44:10;3.55;;;2.75;;
15216;SDS011;7711;46.634;14.318;2023-04-25T12:46:38;4.97;;;2.85;;
15216;SDS011;7711;46.634;14.318;2023-04-25T12:49:07;3.17;;;2.55;;
15216;SDS011;7711;46.634;14.318;2023-04-25T12:51:34;3.08;;;2.75;;
15216;SDS011;7711;46.634;14.318;2023-04-25T12:54:02;6.38;;;2.67;;
15216;SDS011;7711;46.634;14.318;2023-04-25T12:56:31;5.22;;;3.33;;
15216;SDS011;7711;46.634;14.318;2023-04-25T12:58:59;2.70;;;2.15;;
15216;SDS011;7711;46.634;14.318;2023-04-25T13:01:28;2.25;;;2.05;;
15216;SDS011;7711;46.634;14.318;2023-04-25T13:03:55;4.53;;;2.13;;
15216;SDS011;7711;46.634;14.318;2023-04-25T13:06:22;3.95;;;2.25;;
15216;SDS011;7711;46.634;14.318;2023-04-25T13:08:49;2.80;;;2.00;;
15216;SDS011;7711;46.634;14.318;2023-04-25T13:11:17;2.33;;;2.13;;
15216;SDS011;7711;46.634;14.318;2023-04-25T13:13:44;3.45;;;2.20;;
15216;SDS011;7711;46.634;14.318;2023-04-25T13:16:12;2.33;;;1.90;;
15216;SDS011;7711;46.634;14.318;2023-04-25T13:18:40;1.83;;;1.42;;
15216;SDS011;7711;46.634;14.318;2023-04-25T13:21:08;2.50;;;1.75;;
15216;SDS011;7711;46.634;14.318;2023-04-25T13:23:36;2.08;;;1.80;;
15216;SDS011;7711;46.634;14.318;2023-04-25T13:26:04;2.63;;;1.73;;
15216;SDS011;7711;46.634;14.318;2023-04-25T13:28:31;1.80;;;1.65;;
15216;SDS011;7711;46.634;14.318;2023-04-25T13:30:58;1.67;;;1.58;;
15216;SDS011;7711;46.634;14.318;2023-04-25T13:33:26;2.05;;;1.63;;
15216;SDS011;7711;46.634;14.318;2023-04-25T13:35:53;1.65;;;1.55;;
15216;SDS011;7711;46.634;14.318;2023-04-25T13:38:22;1.52;;;1.42;;
15216;SDS011;7711;46.634;14.318;2023-04-25T13:40:50;4.90;;;2.15;;
15216;SDS011;7711;46.634;14.318;2023-04-25T13:43:18;1.60;;;1.30;;
15216;SDS011;7711;46.634;14.318;2023-04-25T13:45:46;2.83;;;2.00;;
15216;SDS011;7711;46.634;14.318;2023-04-25T13:48:13;4.75;;;2.30;;
15216;SDS011;7711;46.634;14.318;2023-04-25T13:50:41;2.58;;;1.80;;
15216;SDS011;7711;46.634;14.318;2023-04-25T13:53:08;1.92;;;1.52;;
15216;SDS011;7711;46.634;14.318;2023-04-25T13:55:35;1.60;;;1.50;;
15216;SDS011;7711;46.634;14.318;2023-04-25T13:58:03;1.67;;;1.58;;
15216;SDS011;7711;46.634;14.318;2023-04-25T14:00:33;2.20;;;1.70;;
15216;SDS011;7711;46.634;14.318;2023-04-25T14:03:03;1.80;;;1.70;;
15216;SDS011;7711;46.634;14.318;2023-04-25T14:05:32;2.83;;;1.70;;
15216;SDS011;7711;46.634;14.318;2023-04-25T14:08:04;1.52;;;1.42;;
15216;SDS011;7711;46.634;14.318;2023-04-25T14:10:32;2.42;;;1.88;;
15216;SDS011;7711;46.634;14.318;2023-04-25T14:12:59;2.08;;;1.80;;
15216;SDS011;7711;46.634;14.318;2023-04-25T14:15:28;1.65;;;1.55;;
15216;SDS011;7711;46.634;14.318;2023-04-25T14:17:55;2.10;;;1.90;;
15216;SDS011;7711;46.634;14.318;2023-04-25T14:20:22;2.28;;;2.00;;
15216;SDS011;7711;46.634;14.318;2023-04-25T14:22:49;1.83;;;1.73;;
15216;SDS011;7711;46.634;14.318;2023-04-25T14:25:18;4.05;;;2.70;;
15216;SDS011;7711;46.634;14.318;2023-04-25T14:27:45;2.90;;;2.00;;
15216;SDS011;7711;46.634;14.318;2023-04-25T14:30:14;2.58;;;2.00;;
15216;SDS011;7711;46.634;14.318;2023-04-25T14:32:42;4.38;;;2.30;;
15216;SDS011;7711;46.634;14.318;2023-04-25T14:35:09;4.15;;;2.25;;
15216;SDS011;7711;46.634;14.318;2023-04-25T14:37:37;2.72;;;2.22;;
15216;SDS011;7711;46.634;14.318;2023-04-25T14:40:04;3.28;;;2.10;;
15216;SDS011;7711;46.634;14.318;2023-04-25T14:42:35;2.55;;;2.30;;
15216;SDS011;7711;46.634;14.318;2023-04-25T14:45:02;2.17;;;1.83;;
15216;SDS011;7711;46.634;14.318;2023-04-25T14:47:29;3.05;;;1.80;;